sensor_id;sensor_type;location;lat;lon;timestamp;pressure;altitude;pressure_sealevel;temperature;humidity
61434;BME280;47300;46.192;9.000;2023-01-30T00:01:29;98855.16;;;0.63;72.22
61434;BME280;47300;46.192;9.000;2023-01-30T00:03:55;98854.22;;;0.61;71.00
61434;BME280;47300;46.192;9.000;2023-01-30T00:06:20;98844.97;;;0.66;69.65
61434;BME280;47300;46.192;9.000;2023-01-30T00:08:46;98846.97;;;0.74;68.31
61434;BME280;47300;46.192;9.000;2023-01-30T00:11:12;98841.16;;;0.78;66.94
61434;BME280;47300;46.192;9.000;2023-01-30T00:13:37;98831.56;;;0.75;65.30
61434;BME280;47300;46.192;9.000;2023-01-30T00:16:03;98826.47;;;0.77;64.81
61434;BME280;47300;46.192;9.000;2023-01-30T00:18:29;98818.72;;;0.77;64.70
61434;BME280;47300;46.192;9.000;2023-01-30T00:20:58;98826.53;;;0.37;65.65
61434;BME280;47300;46.192;9.000;2023-01-30T00:23:24;98825.41;;;0.31;65.60
61434;BME280;47300;46.192;9.000;2023-01-30T00:25:50;98818.53;;;0.52;64.55
61434;BME280;47300;46.192;9.000;2023-01-30T00:28:15;98820.69;;;0.41;64.37
61434;BME280;47300;46.192;9.000;2023-01-30T00:30:40;98816.72;;;0.50;63.46
61434;BME280;47300;46.192;9.000;2023-01-30T00:33:05;98814.66;;;0.62;64.14
61434;BME280;47300;46.192;9.000;2023-01-30T00:35:30;98810.63;;;0.69;66.25
61434;BME280;47300;46.192;9.000;2023-01-30T00:37:56;98818.50;;;0.51;68.11
61434;BME280;47300;46.192;9.000;2023-01-30T00:40:22;98815.00;;;0.50;67.87
61434;BME280;47300;46.192;9.000;2023-01-30T00:42:47;98829.94;;;0.36;66.58
61434;BME280;47300;46.192;9.000;2023-01-30T00:45:30;98822.84;;;0.52;65.24
61434;BME280;47300;46.192;9.000;2023-01-30T00:48:14;98820.59;;;0.60;65.50
61434;BME280;47300;46.192;9.000;2023-01-30T00:50:40;98817.94;;;0.58;68.04
61434;BME280;47300;46.192;9.000;2023-01-30T00:53:11;98817.69;;;0.52;67.24
61434;BME280;47300;46.192;9.000;2023-01-30T00:55:36;98813.25;;;0.49;66.75
61434;BME280;47300;46.192;9.000;2023-01-30T00:58:01;98813.22;;;0.48;67.19
61434;BME280;47300;46.192;9.000;2023-01-30T01:00:27;98821.81;;;0.48;66.83
61434;BME280;47300;46.192;9.000;2023-01-30T01:02:52;98814.19;;;0.51;69.11
61434;BME280;47300;46.192;9.000;2023-01-30T01:05:17;98808.97;;;0.50;68.87
61434;BME280;47300;46.192;9.000;2023-01-30T01:07:42;98804.63;;;0.49;68.30
61434;BME280;47300;46.192;9.000;2023-01-30T01:10:08;98803.47;;;0.42;67.43
61434;BME280;47300;46.192;9.000;2023-01-30T01:12:33;98803.84;;;0.30;70.97
61434;BME280;47300;46.192;9.000;2023-01-30T01:14:58;98810.50;;;0.25;70.80
61434;BME280;47300;46.192;9.000;2023-01-30T01:17:23;98808.19;;;0.31;70.85
61434;BME280;47300;46.192;9.000;2023-01-30T01:19:48;98802.84;;;0.26;71.94
61434;BME280;47300;46.192;9.000;2023-01-30T01:22:14;98804.91;;;-0.06;73.05
61434;BME280;47300;46.192;9.000;2023-01-30T01:24:39;98803.69;;;0.06;71.92
61434;BME280;47300;46.192;9.000;2023-01-30T01:27:04;98806.28;;;-0.14;74.72
61434;BME280;47300;46.192;9.000;2023-01-30T01:29:29;98800.63;;;-0.25;73.26
61434;BME280;47300;46.192;9.000;2023-01-30T01:31:56;98804.16;;;-0.23;70.34
61434;BME280;47300;46.192;9.000;2023-01-30T01:34:21;98798.88;;;-0.26;75.75
61434;BME280;47300;46.192;9.000;2023-01-30T01:36:47;98798.53;;;-0.14;75.31
61434;BME280;47300;46.192;9.000;2023-01-30T01:39:13;98788.63;;;-0.05;72.68
61434;BME280;47300;46.192;9.000;2023-01-30T01:41:38;98791.47;;;0.02;69.92
61434;BME280;47300;46.192;9.000;2023-01-30T01:44:07;98792.53;;;0.07;68.32
61434;BME280;47300;46.192;9.000;2023-01-30T01:46:46;98790.84;;;0.07;67.30
61434;BME280;47300;46.192;9.000;2023-01-30T01:49:19;98785.34;;;0.19;66.90
61434;BME280;47300;46.192;9.000;2023-01-30T01:51:56;98790.41;;;0.18;66.20
61434;BME280;47300;46.192;9.000;2023-01-30T01:56:51;98792.81;;;-0.07;65.86
61434;BME280;47300;46.192;9.000;2023-01-30T01:59:24;98789.94;;;0.07;66.80
61434;BME280;47300;46.192;9.000;2023-01-30T02:01:52;98795.44;;;0.14;66.36
61434;BME280;47300;46.192;9.000;2023-01-30T02:04:20;98787.84;;;-0.02;67.63
61434;BME280;47300;46.192;9.000;2023-01-30T02:07:05;98788.53;;;0.13;67.01
61434;BME280;47300;46.192;9.000;2023-01-30T02:09:31;98775.75;;;0.17;66.17
61434;BME280;47300;46.192;9.000;2023-01-30T02:11:56;98772.00;;;0.30;64.55
61434;BME280;47300;46.192;9.000;2023-01-30T02:14:24;98775.44;;;-0.11;72.66
61434;BME280;47300;46.192;9.000;2023-01-30T02:16:49;98776.19;;;-0.33;74.50
61434;BME280;47300;46.192;9.000;2023-01-30T02:22:08;98763.69;;;-0.24;73.63
61434;BME280;47300;46.192;9.000;2023-01-30T02:24:48;98771.63;;;-0.19;72.99
61434;BME280;47300;46.192;9.000;2023-01-30T02:40:35;98749.56;;;-0.12;73.42
61434;BME280;47300;46.192;9.000;2023-01-30T02:43:15;98753.94;;;-0.31;74.30
61434;BME280;47300;46.192;9.000;2023-01-30T02:45:53;98750.97;;;-0.59;76.96
61434;BME280;47300;46.192;9.000;2023-01-30T02:48:27;98741.78;;;-0.53;76.25
61434;BME280;47300;46.192;9.000;2023-01-30T02:53:21;98740.16;;;-0.51;76.40
61434;BME280;47300;46.192;9.000;2023-01-30T02:55:46;98740.56;;;-0.80;76.37
61434;BME280;47300;46.192;9.000;2023-01-30T02:58:11;98741.19;;;-0.85;77.00
61434;BME280;47300;46.192;9.000;2023-01-30T03:08:24;98734.19;;;-0.88;79.51
61434;BME280;47300;46.192;9.000;2023-01-30T03:11:03;98739.72;;;-0.80;78.78
61434;BME280;47300;46.192;9.000;2023-01-30T03:16:11;98734.28;;;-0.67;77.50
61434;BME280;47300;46.192;9.000;2023-01-30T03:18:40;98730.97;;;-0.64;75.51
61434;BME280;47300;46.192;9.000;2023-01-30T03:21:06;98723.50;;;-0.58;73.67
61434;BME280;47300;46.192;9.000;2023-01-30T03:23:32;98716.94;;;-0.51;71.15
61434;BME280;47300;46.192;9.000;2023-01-30T03:25:57;98715.63;;;-0.41;70.68
61434;BME280;47300;46.192;9.000;2023-01-30T03:28:22;98706.25;;;-0.39;70.85
61434;BME280;47300;46.192;9.000;2023-01-30T03:30:48;98703.28;;;-0.49;71.33
61434;BME280;47300;46.192;9.000;2023-01-30T03:33:13;98705.25;;;-0.63;73.86
61434;BME280;47300;46.192;9.000;2023-01-30T03:35:39;98700.22;;;-0.79;75.12
61434;BME280;47300;46.192;9.000;2023-01-30T03:38:04;98700.91;;;-0.83;76.34
61434;BME280;47300;46.192;9.000;2023-01-30T03:40:29;98703.66;;;-0.98;76.07
61434;BME280;47300;46.192;9.000;2023-01-30T03:42:55;98682.78;;;-1.05;76.24
61434;BME280;47300;46.192;9.000;2023-01-30T03:45:20;98687.28;;;-1.19;75.93
61434;BME280;47300;46.192;9.000;2023-01-30T03:47:45;98678.97;;;-0.93;74.20
61434;BME280;47300;46.192;9.000;2023-01-30T03:50:10;98679.34;;;-0.85;72.56
61434;BME280;47300;46.192;9.000;2023-01-30T03:52:36;98679.47;;;-0.63;70.37
61434;BME280;47300;46.192;9.000;2023-01-30T03:55:01;98670.09;;;-0.61;70.35
61434;BME280;47300;46.192;9.000;2023-01-30T03:57:27;98669.03;;;-0.85;76.15
61434;BME280;47300;46.192;9.000;2023-01-30T03:59:52;98664.00;;;-0.82;76.34
61434;BME280;47300;46.192;9.000;2023-01-30T04:02:17;98667.03;;;-0.91;77.78
61434;BME280;47300;46.192;9.000;2023-01-30T04:04:47;98663.38;;;-0.96;78.56
61434;BME280;47300;46.192;9.000;2023-01-30T04:07:12;98667.94;;;-0.91;77.97
61434;BME280;47300;46.192;9.000;2023-01-30T04:09:37;98670.03;;;-1.02;77.85
61434;BME280;47300;46.192;9.000;2023-01-30T04:12:02;98679.91;;;-1.11;77.61
61434;BME280;47300;46.192;9.000;2023-01-30T04:14:28;98680.53;;;-0.97;77.73
61434;BME280;47300;46.192;9.000;2023-01-30T04:16:53;98676.19;;;-0.98;78.75
61434;BME280;47300;46.192;9.000;2023-01-30T04:19:18;98677.50;;;-1.26;79.11
61434;BME280;47300;46.192;9.000;2023-01-30T04:21:43;98685.59;;;-1.36;79.94
61434;BME280;47300;46.192;9.000;2023-01-30T04:24:08;98690.25;;;-1.29;81.15
61434;BME280;47300;46.192;9.000;2023-01-30T04:26:34;98689.63;;;-1.23;80.72
61434;BME280;47300;46.192;9.000;2023-01-30T04:28:59;98692.31;;;-1.40;82.15
61434;BME280;47300;46.192;9.000;2023-01-30T04:31:24;98692.88;;;-1.46;81.59
61434;BME280;47300;46.192;9.000;2023-01-30T04:33:49;98686.41;;;-1.37;82.26
61434;BME280;47300;46.192;9.000;2023-01-30T04:36:14;98689.34;;;-1.84;82.77
61434;BME280;47300;46.192;9.000;2023-01-30T04:38:40;98684.72;;;-1.55;81.90
61434;BME280;47300;46.192;9.000;2023-01-30T04:41:05;98673.06;;;-1.66;80.68
61434;BME280;47300;46.192;9.000;2023-01-30T04:43:30;98670.47;;;-1.48;75.32
61434;BME280;47300;46.192;9.000;2023-01-30T04:45:56;98669.91;;;-1.23;74.68
61434;BME280;47300;46.192;9.000;2023-01-30T04:48:21;98674.75;;;-1.11;74.81
61434;BME280;47300;46.192;9.000;2023-01-30T04:50:48;98659.19;;;-1.32;78.00
61434;BME280;47300;46.192;9.000;2023-01-30T04:53:13;98667.97;;;-1.65;79.05
61434;BME280;47300;46.192;9.000;2023-01-30T04:55:38;98661.28;;;-1.61;80.09
61434;BME280;47300;46.192;9.000;2023-01-30T04:58:03;98672.53;;;-1.59;80.60
61434;BME280;47300;46.192;9.000;2023-01-30T05:00:29;98672.28;;;-1.64;81.41
61434;BME280;47300;46.192;9.000;2023-01-30T05:02:54;98674.66;;;-1.50;77.64
61434;BME280;47300;46.192;9.000;2023-01-30T05:05:23;98663.31;;;-1.36;78.58
61434;BME280;47300;46.192;9.000;2023-01-30T05:07:48;98661.56;;;-1.37;77.56
61434;BME280;47300;46.192;9.000;2023-01-30T05:10:14;98661.69;;;-1.34;79.96
61434;BME280;47300;46.192;9.000;2023-01-30T05:12:39;98657.63;;;-1.28;79.18
61434;BME280;47300;46.192;9.000;2023-01-30T05:15:05;98658.88;;;-1.38;78.41
61434;BME280;47300;46.192;9.000;2023-01-30T05:17:31;98649.69;;;-1.33;78.25
61434;BME280;47300;46.192;9.000;2023-01-30T05:19:56;98649.75;;;-1.32;77.27
61434;BME280;47300;46.192;9.000;2023-01-30T05:22:21;98647.84;;;-1.36;77.09
61434;BME280;47300;46.192;9.000;2023-01-30T05:24:46;98656.97;;;-1.24;76.61
61434;BME280;47300;46.192;9.000;2023-01-30T05:27:11;98644.69;;;-1.30;76.58
61434;BME280;47300;46.192;9.000;2023-01-30T05:29:37;98635.13;;;-1.33;77.20
61434;BME280;47300;46.192;9.000;2023-01-30T05:32:02;98638.16;;;-1.41;77.85
61434;BME280;47300;46.192;9.000;2023-01-30T05:34:28;98631.63;;;-1.53;78.57
61434;BME280;47300;46.192;9.000;2023-01-30T05:36:53;98626.03;;;-1.44;76.65
61434;BME280;47300;46.192;9.000;2023-01-30T05:39:18;98627.94;;;-1.40;78.09
61434;BME280;47300;46.192;9.000;2023-01-30T05:41:43;98616.53;;;-1.45;78.11
61434;BME280;47300;46.192;9.000;2023-01-30T05:44:08;98608.34;;;-1.54;78.46
61434;BME280;47300;46.192;9.000;2023-01-30T05:46:34;98610.50;;;-1.46;76.09
61434;BME280;47300;46.192;9.000;2023-01-30T05:48:59;98612.97;;;-1.29;74.49
61434;BME280;47300;46.192;9.000;2023-01-30T05:51:24;98615.91;;;-1.39;74.69
61434;BME280;47300;46.192;9.000;2023-01-30T05:53:50;98616.16;;;-1.15;72.16
61434;BME280;47300;46.192;9.000;2023-01-30T05:56:16;98624.84;;;-0.93;72.67
61434;BME280;47300;46.192;9.000;2023-01-30T05:58:41;98617.69;;;-1.38;77.41
61434;BME280;47300;46.192;9.000;2023-01-30T06:01:08;98623.28;;;-1.29;77.70
61434;BME280;47300;46.192;9.000;2023-01-30T06:03:34;98621.78;;;-1.24;78.83
61434;BME280;47300;46.192;9.000;2023-01-30T06:06:00;98620.22;;;-1.20;78.11
61434;BME280;47300;46.192;9.000;2023-01-30T06:08:25;98621.78;;;-1.04;75.98
61434;BME280;47300;46.192;9.000;2023-01-30T06:10:51;98614.69;;;-0.90;73.72
61434;BME280;47300;46.192;9.000;2023-01-30T06:13:16;98613.38;;;-0.61;70.12
61434;BME280;47300;46.192;9.000;2023-01-30T06:15:41;98610.16;;;-0.35;67.65
61434;BME280;47300;46.192;9.000;2023-01-30T06:18:06;98613.94;;;-0.27;68.09
61434;BME280;47300;46.192;9.000;2023-01-30T06:20:32;98614.78;;;-0.26;72.86
61434;BME280;47300;46.192;9.000;2023-01-30T06:22:57;98607.84;;;-0.49;74.04
61434;BME280;47300;46.192;9.000;2023-01-30T06:25:22;98618.56;;;-0.80;75.66
61434;BME280;47300;46.192;9.000;2023-01-30T06:27:47;98606.59;;;-1.18;77.75
61434;BME280;47300;46.192;9.000;2023-01-30T06:30:13;98608.53;;;-0.94;77.51
61434;BME280;47300;46.192;9.000;2023-01-30T06:32:38;98600.88;;;-1.12;77.40
61434;BME280;47300;46.192;9.000;2023-01-30T06:35:03;98599.88;;;-1.14;75.97
61434;BME280;47300;46.192;9.000;2023-01-30T06:37:28;98595.34;;;-1.00;75.64
61434;BME280;47300;46.192;9.000;2023-01-30T06:39:54;98591.78;;;-1.04;75.27
61434;BME280;47300;46.192;9.000;2023-01-30T06:42:19;98586.06;;;-1.16;76.17
61434;BME280;47300;46.192;9.000;2023-01-30T06:44:44;98579.13;;;-1.37;77.62
61434;BME280;47300;46.192;9.000;2023-01-30T06:47:09;98570.31;;;-1.22;74.19
61434;BME280;47300;46.192;9.000;2023-01-30T06:49:34;98576.22;;;-1.05;75.12
61434;BME280;47300;46.192;9.000;2023-01-30T06:52:00;98563.00;;;-1.33;76.71
61434;BME280;47300;46.192;9.000;2023-01-30T06:54:25;98549.72;;;-1.42;76.24
61434;BME280;47300;46.192;9.000;2023-01-30T06:56:50;98548.63;;;-1.27;76.21
61434;BME280;47300;46.192;9.000;2023-01-30T06:59:15;98556.56;;;-1.42;76.27
61434;BME280;47300;46.192;9.000;2023-01-30T07:01:40;98557.78;;;-1.14;75.04
61434;BME280;47300;46.192;9.000;2023-01-30T07:04:05;98563.34;;;-1.05;75.06
61434;BME280;47300;46.192;9.000;2023-01-30T07:06:31;98568.09;;;-0.95;73.67
61434;BME280;47300;46.192;9.000;2023-01-30T07:08:56;98577.59;;;-1.13;75.06
61434;BME280;47300;46.192;9.000;2023-01-30T07:11:22;98583.88;;;-1.26;77.06
61434;BME280;47300;46.192;9.000;2023-01-30T07:13:48;98590.44;;;-1.33;77.60
61434;BME280;47300;46.192;9.000;2023-01-30T07:16:13;98596.94;;;-1.41;78.91
61434;BME280;47300;46.192;9.000;2023-01-30T07:18:38;98599.75;;;-1.37;78.78
61434;BME280;47300;46.192;9.000;2023-01-30T07:21:03;98594.63;;;-1.35;78.18
61434;BME280;47300;46.192;9.000;2023-01-30T07:23:28;98606.59;;;-1.18;76.88
61434;BME280;47300;46.192;9.000;2023-01-30T07:25:54;98602.94;;;-1.03;76.02
61434;BME280;47300;46.192;9.000;2023-01-30T07:28:19;98602.94;;;-1.03;75.16
61434;BME280;47300;46.192;9.000;2023-01-30T07:30:44;98596.72;;;-0.89;75.04
61434;BME280;47300;46.192;9.000;2023-01-30T07:33:10;98613.47;;;-0.98;75.73
61434;BME280;47300;46.192;9.000;2023-01-30T07:35:35;98613.66;;;-1.13;77.00
61434;BME280;47300;46.192;9.000;2023-01-30T07:38:01;98609.94;;;-0.81;76.24
61434;BME280;47300;46.192;9.000;2023-01-30T07:40:26;98614.59;;;-0.52;74.65
61434;BME280;47300;46.192;9.000;2023-01-30T07:43:02;98603.38;;;-0.33;73.24
61434;BME280;47300;46.192;9.000;2023-01-30T07:45:27;98592.78;;;-0.18;71.40
61434;BME280;47300;46.192;9.000;2023-01-30T07:47:53;98606.31;;;-0.03;71.60
61434;BME280;47300;46.192;9.000;2023-01-30T07:50:19;98606.06;;;0.12;72.51
61434;BME280;47300;46.192;9.000;2023-01-30T07:52:44;98603.84;;;0.01;72.59
61434;BME280;47300;46.192;9.000;2023-01-30T07:55:09;98599.13;;;0.11;71.31
61434;BME280;47300;46.192;9.000;2023-01-30T07:57:34;98594.53;;;0.04;73.29
61434;BME280;47300;46.192;9.000;2023-01-30T07:59:59;98586.09;;;0.08;73.86
61434;BME280;47300;46.192;9.000;2023-01-30T08:02:25;98584.94;;;0.00;72.52
61434;BME280;47300;46.192;9.000;2023-01-30T08:04:50;98586.22;;;0.11;73.15
61434;BME280;47300;46.192;9.000;2023-01-30T08:07:15;98576.16;;;0.40;74.57
61434;BME280;47300;46.192;9.000;2023-01-30T08:09:40;98574.91;;;0.53;73.98
61434;BME280;47300;46.192;9.000;2023-01-30T08:12:06;98570.56;;;0.52;72.09
61434;BME280;47300;46.192;9.000;2023-01-30T08:14:31;98568.28;;;0.84;72.91
61434;BME280;47300;46.192;9.000;2023-01-30T08:16:56;98561.47;;;0.62;73.29
61434;BME280;47300;46.192;9.000;2023-01-30T08:19:21;98561.63;;;0.67;72.01
61434;BME280;47300;46.192;9.000;2023-01-30T08:21:47;98548.78;;;0.00;75.32
61434;BME280;47300;46.192;9.000;2023-01-30T08:24:12;98553.56;;;0.57;73.89
61434;BME280;47300;46.192;9.000;2023-01-30T08:26:37;98561.63;;;0.67;74.46
61434;BME280;47300;46.192;9.000;2023-01-30T08:29:02;98565.97;;;1.15;72.14
61434;BME280;47300;46.192;9.000;2023-01-30T08:31:28;98560.25;;;1.77;66.16
61434;BME280;47300;46.192;9.000;2023-01-30T08:33:53;98559.75;;;2.15;64.28
61434;BME280;47300;46.192;9.000;2023-01-30T08:36:18;98550.38;;;2.48;65.81
61434;BME280;47300;46.192;9.000;2023-01-30T08:38:43;98561.63;;;2.21;66.14
61434;BME280;47300;46.192;9.000;2023-01-30T08:41:08;98562.72;;;2.27;65.24
61434;BME280;47300;46.192;9.000;2023-01-30T08:43:34;98564.06;;;2.43;65.45
61434;BME280;47300;46.192;9.000;2023-01-30T08:45:59;98566.31;;;2.91;62.18
61434;BME280;47300;46.192;9.000;2023-01-30T08:48:24;98574.19;;;3.26;60.30
61434;BME280;47300;46.192;9.000;2023-01-30T08:50:50;98583.81;;;3.64;57.15
61434;BME280;47300;46.192;9.000;2023-01-30T08:53:15;98591.59;;;3.62;58.11
61434;BME280;47300;46.192;9.000;2023-01-30T08:55:42;98592.38;;;3.59;58.44
61434;BME280;47300;46.192;9.000;2023-01-30T08:58:07;98599.13;;;3.88;57.34
61434;BME280;47300;46.192;9.000;2023-01-30T09:00:32;98587.53;;;4.09;55.29
61434;BME280;47300;46.192;9.000;2023-01-30T09:02:58;98596.44;;;3.83;54.80
61434;BME280;47300;46.192;9.000;2023-01-30T09:05:24;98606.31;;;3.63;56.01
61434;BME280;47300;46.192;9.000;2023-01-30T09:07:49;98602.66;;;3.90;54.58
61434;BME280;47300;46.192;9.000;2023-01-30T09:10:15;98587.31;;;3.99;52.61
61434;BME280;47300;46.192;9.000;2023-01-30T09:12:40;98574.34;;;4.01;53.04
61434;BME280;47300;46.192;9.000;2023-01-30T09:15:06;98571.78;;;4.39;51.84
61434;BME280;47300;46.192;9.000;2023-01-30T09:17:31;98564.34;;;4.56;50.30
61434;BME280;47300;46.192;9.000;2023-01-30T09:19:56;98551.81;;;4.38;50.82
61434;BME280;47300;46.192;9.000;2023-01-30T09:22:22;98545.91;;;4.45;50.25
61434;BME280;47300;46.192;9.000;2023-01-30T09:24:47;98540.41;;;4.31;48.82
61434;BME280;47300;46.192;9.000;2023-01-30T09:27:12;98538.66;;;4.30;50.32
61434;BME280;47300;46.192;9.000;2023-01-30T09:29:37;98541.31;;;3.95;49.26
61434;BME280;47300;46.192;9.000;2023-01-30T09:32:02;98543.97;;;4.35;48.66
61434;BME280;47300;46.192;9.000;2023-01-30T09:34:28;98545.31;;;4.57;47.62
61434;BME280;47300;46.192;9.000;2023-01-30T09:36:53;98541.19;;;4.67;47.72
61434;BME280;47300;46.192;9.000;2023-01-30T09:39:19;98537.91;;;5.22;47.18
61434;BME280;47300;46.192;9.000;2023-01-30T09:41:47;98533.47;;;5.65;45.89
61434;BME280;47300;46.192;9.000;2023-01-30T09:47:01;98520.66;;;5.76;43.80
61434;BME280;47300;46.192;9.000;2023-01-30T09:52:35;98507.34;;;5.58;44.03
61434;BME280;47300;46.192;9.000;2023-01-30T09:55:17;98510.22;;;5.75;45.00
61434;BME280;47300;46.192;9.000;2023-01-30T09:57:44;98508.84;;;5.46;43.43
61434;BME280;47300;46.192;9.000;2023-01-30T10:00:12;98503.53;;;5.39;44.69
61434;BME280;47300;46.192;9.000;2023-01-30T10:05:10;98506.75;;;6.33;44.50
61434;BME280;47300;46.192;9.000;2023-01-30T10:07:42;98498.34;;;6.53;43.07
61434;BME280;47300;46.192;9.000;2023-01-30T10:15:14;98501.81;;;5.93;44.90
61434;BME280;47300;46.192;9.000;2023-01-30T10:22:45;98474.97;;;6.62;44.05
61434;BME280;47300;46.192;9.000;2023-01-30T10:27:38;98464.88;;;6.91;43.96
61434;BME280;47300;46.192;9.000;2023-01-30T10:30:05;98449.09;;;6.79;42.38
61434;BME280;47300;46.192;9.000;2023-01-30T10:32:35;98443.97;;;6.87;43.20
61434;BME280;47300;46.192;9.000;2023-01-30T10:35:06;98435.31;;;6.91;41.82
61434;BME280;47300;46.192;9.000;2023-01-30T10:37:40;98426.97;;;7.29;42.29
61434;BME280;47300;46.192;9.000;2023-01-30T10:40:22;98421.94;;;7.52;41.07
61434;BME280;47300;46.192;9.000;2023-01-30T10:48:23;98401.06;;;7.57;39.76
61434;BME280;47300;46.192;9.000;2023-01-30T10:50:57;98392.06;;;7.19;39.64
61434;BME280;47300;46.192;9.000;2023-01-30T10:53:34;98389.56;;;7.33;39.57
61434;BME280;47300;46.192;9.000;2023-01-30T10:58:31;98370.31;;;7.20;38.98
61434;BME280;47300;46.192;9.000;2023-01-30T11:01:11;98365.09;;;7.20;38.98
61434;BME280;47300;46.192;9.000;2023-01-30T11:03:40;98360.84;;;7.30;39.15
61434;BME280;47300;46.192;9.000;2023-01-30T11:06:06;98356.72;;;7.68;38.74
61434;BME280;47300;46.192;9.000;2023-01-30T11:08:35;98341.97;;;7.75;37.78
61434;BME280;47300;46.192;9.000;2023-01-30T11:11:00;98345.25;;;7.43;38.26
61434;BME280;47300;46.192;9.000;2023-01-30T11:13:44;98344.16;;;7.16;39.14
61434;BME280;47300;46.192;9.000;2023-01-30T11:16:10;98340.88;;;7.42;38.34
61434;BME280;47300;46.192;9.000;2023-01-30T11:18:45;98337.53;;;7.58;37.65
61434;BME280;47300;46.192;9.000;2023-01-30T11:21:16;98323.78;;;7.98;37.64
61434;BME280;47300;46.192;9.000;2023-01-30T11:23:43;98319.59;;;8.39;37.43
61434;BME280;47300;46.192;9.000;2023-01-30T11:26:19;98320.53;;;8.80;36.92
61434;BME280;47300;46.192;9.000;2023-01-30T11:28:45;98317.09;;;9.10;35.37
61434;BME280;47300;46.192;9.000;2023-01-30T11:31:17;98308.34;;;9.04;36.04
61434;BME280;47300;46.192;9.000;2023-01-30T11:33:43;98323.16;;;8.71;35.58
61434;BME280;47300;46.192;9.000;2023-01-30T11:36:25;98320.53;;;9.26;35.17
61434;BME280;47300;46.192;9.000;2023-01-30T11:38:58;98309.16;;;9.45;35.51
61434;BME280;47300;46.192;9.000;2023-01-30T11:41:23;98318.75;;;9.56;35.25
61434;BME280;47300;46.192;9.000;2023-01-30T11:43:49;98319.69;;;8.96;35.58
61434;BME280;47300;46.192;9.000;2023-01-30T11:46:17;98324.91;;;9.40;35.36
61434;BME280;47300;46.192;9.000;2023-01-30T11:48:54;98318.78;;;9.36;35.54
61434;BME280;47300;46.192;9.000;2023-01-30T11:51:22;98304.78;;;9.47;36.13
61434;BME280;47300;46.192;9.000;2023-01-30T11:53:58;98282.16;;;9.29;35.22
61434;BME280;47300;46.192;9.000;2023-01-30T11:58:57;98268.13;;;9.44;35.50
61434;BME280;47300;46.192;9.000;2023-01-30T12:01:40;98255.88;;;9.56;34.60
61434;BME280;47300;46.192;9.000;2023-01-30T12:04:07;98228.72;;;9.76;34.99
61434;BME280;47300;46.192;9.000;2023-01-30T12:06:35;98240.97;;;9.77;34.91
61434;BME280;47300;46.192;9.000;2023-01-30T12:09:01;98237.59;;;9.41;34.43
61434;BME280;47300;46.192;9.000;2023-01-30T12:21:57;98204.38;;;9.48;35.01
61434;BME280;47300;46.192;9.000;2023-01-30T12:24:30;98195.47;;;9.83;33.33
61434;BME280;47300;46.192;9.000;2023-01-30T12:27:02;98179.63;;;10.08;33.50
61434;BME280;47300;46.192;9.000;2023-01-30T12:29:30;98177.66;;;10.44;33.56
61434;BME280;47300;46.192;9.000;2023-01-30T12:32:01;98171.50;;;10.47;32.06
61434;BME280;47300;46.192;9.000;2023-01-30T12:34:29;98169.00;;;10.30;32.38
61434;BME280;47300;46.192;9.000;2023-01-30T12:37:14;98161.94;;;10.33;32.40
61434;BME280;47300;46.192;9.000;2023-01-30T12:50:24;98148.94;;;11.18;31.19
61434;BME280;47300;46.192;9.000;2023-01-30T12:58:15;98128.19;;;10.94;30.83
61434;BME280;47300;46.192;9.000;2023-01-30T13:01:06;98115.75;;;11.10;31.76
61434;BME280;47300;46.192;9.000;2023-01-30T13:08:45;98109.28;;;11.38;30.38
61434;BME280;47300;46.192;9.000;2023-01-30T13:11:26;98096.34;;;11.24;31.03
61434;BME280;47300;46.192;9.000;2023-01-30T13:14:00;98089.56;;;11.03;31.04
61434;BME280;47300;46.192;9.000;2023-01-30T13:18:54;98103.75;;;10.88;30.88
61434;BME280;47300;46.192;9.000;2023-01-30T13:26:21;98093.53;;;10.61;31.91
61434;BME280;47300;46.192;9.000;2023-01-30T13:28:55;98082.91;;;10.70;32.52
61434;BME280;47300;46.192;9.000;2023-01-30T13:31:22;98081.47;;;10.35;33.49
61434;BME280;47300;46.192;9.000;2023-01-30T13:33:49;98073.78;;;10.15;33.93
61434;BME280;47300;46.192;9.000;2023-01-30T13:36:26;98064.22;;;10.09;34.50
61434;BME280;47300;46.192;9.000;2023-01-30T13:38:58;98057.28;;;10.02;34.62
61434;BME280;47300;46.192;9.000;2023-01-30T13:41:24;98046.03;;;9.88;34.23
61434;BME280;47300;46.192;9.000;2023-01-30T13:43:53;98054.69;;;9.97;34.12
61434;BME280;47300;46.192;9.000;2023-01-30T13:46:21;98047.88;;;9.75;34.18
61434;BME280;47300;46.192;9.000;2023-01-30T13:51:36;98042.78;;;9.53;34.90
61434;BME280;47300;46.192;9.000;2023-01-30T13:54:06;98042.81;;;9.50;35.17
61434;BME280;47300;46.192;9.000;2023-01-30T13:56:44;98045.31;;;9.67;34.92
61434;BME280;47300;46.192;9.000;2023-01-30T13:59:23;98044.28;;;9.91;34.86
61434;BME280;47300;46.192;9.000;2023-01-30T14:06:54;98034.72;;;9.82;35.66
61434;BME280;47300;46.192;9.000;2023-01-30T14:09:31;98042.47;;;9.95;36.26
61434;BME280;47300;46.192;9.000;2023-01-30T14:11:58;98035.59;;;9.80;36.01
61434;BME280;47300;46.192;9.000;2023-01-30T14:14:29;98032.06;;;9.85;36.58
61434;BME280;47300;46.192;9.000;2023-01-30T14:16:56;98024.28;;;9.75;36.08
61434;BME280;47300;46.192;9.000;2023-01-30T14:21:56;98034.09;;;9.45;36.96
61434;BME280;47300;46.192;9.000;2023-01-30T14:24:24;98020.16;;;9.39;37.75
61434;BME280;47300;46.192;9.000;2023-01-30T14:37:13;98032.44;;;9.31;38.33
61434;BME280;47300;46.192;9.000;2023-01-30T14:39:48;98027.03;;;9.59;37.48
61434;BME280;47300;46.192;9.000;2023-01-30T14:42:37;98037.47;;;9.62;37.12
61434;BME280;47300;46.192;9.000;2023-01-30T14:45:09;98042.84;;;9.42;36.80
61434;BME280;47300;46.192;9.000;2023-01-30T14:47:39;98041.19;;;9.29;36.75
61434;BME280;47300;46.192;9.000;2023-01-30T14:50:12;98035.25;;;8.92;36.84
61434;BME280;47300;46.192;9.000;2023-01-30T14:52:42;98047.41;;;9.03;36.08
61434;BME280;47300;46.192;9.000;2023-01-30T14:55:28;98036.94;;;9.01;37.05
61434;BME280;47300;46.192;9.000;2023-01-30T14:58:00;98049.81;;;9.48;36.13
61434;BME280;47300;46.192;9.000;2023-01-30T15:00:27;98052.50;;;9.32;35.54
61434;BME280;47300;46.192;9.000;2023-01-30T15:02:56;98053.41;;;9.23;36.43
61434;BME280;47300;46.192;9.000;2023-01-30T15:12:54;98046.44;;;9.24;36.43
61434;BME280;47300;46.192;9.000;2023-01-30T15:15:28;98066.50;;;9.30;37.39
61434;BME280;47300;46.192;9.000;2023-01-30T15:18:16;98063.97;;;9.08;36.92